createdAt,value
2018-09-01T00:00:19.430Z,21.61
2018-09-01T00:01:19.344Z,21.63
2018-09-01T00:02:19.976Z,21.63
2018-09-01T00:03:19.409Z,21.61
2018-09-01T00:04:19.207Z,21.64
2018-09-01T00:05:19.381Z,21.63
2018-09-01T00:06:19.188Z,21.63
2018-09-01T00:07:19.841Z,21.63
2018-09-01T00:08:19.512Z,21.63
2018-09-01T00:09:19.310Z,21.63
2018-09-01T00:10:19.519Z,21.63
2018-09-01T00:11:20.390Z,21.61
2018-09-01T00:12:19.475Z,21.6
2018-09-01T00:13:19.172Z,21.64
2018-09-01T00:14:19.339Z,21.63
2018-09-01T00:15:19.263Z,21.63
2018-09-01T00:16:19.460Z,21.61
2018-09-01T00:17:19.453Z,21.6
2018-09-01T00:18:19.357Z,21.64
2018-09-01T00:19:19.699Z,21.63
2018-09-01T00:20:19.294Z,21.63
2018-09-01T00:21:19.326Z,21.63
2018-09-01T00:22:19.425Z,21.63
2018-09-01T00:23:19.546Z,21.63
2018-09-01T00:24:19.168Z,21.61
2018-09-01T00:25:19.308Z,21.63
2018-09-01T00:26:19.459Z,21.61
2018-09-01T00:27:19.458Z,21.61
2018-09-01T00:28:19.666Z,21.63
2018-09-01T00:29:19.421Z,21.61
2018-09-01T00:30:19.591Z,21.61
2018-09-01T00:31:19.771Z,21.61
2018-09-01T00:32:19.533Z,21.63
2018-09-01T00:33:19.682Z,21.61
2018-09-01T00:34:19.314Z,21.63
2018-09-01T00:35:19.399Z,21.61
2018-09-01T00:36:19.365Z,21.61
2018-09-01T00:37:19.865Z,21.63
2018-09-01T00:38:19.592Z,21.63
2018-09-01T00:39:19.143Z,21.6
2018-09-01T00:40:19.281Z,21.61
2018-09-01T00:41:19.323Z,21.63
2018-09-01T00:42:19.495Z,21.61
2018-09-01T00:43:19.452Z,21.63
2018-09-01T00:44:19.298Z,21.63
2018-09-01T00:45:19.454Z,21.61
2018-09-01T00:46:19.412Z,21.61
2018-09-01T00:47:19.585Z,21.66
2018-09-01T00:48:19.608Z,21.63
2018-09-01T00:49:19.495Z,21.6
2018-09-01T00:50:19.305Z,21.61
2018-09-01T00:51:19.166Z,21.61
2018-09-01T00:52:19.190Z,21.63
2018-09-01T00:53:19.403Z,21.61
2018-09-01T00:54:19.351Z,21.61
2018-09-01T00:55:19.271Z,21.6
2018-09-01T00:56:19.351Z,21.6
2018-09-01T00:57:19.381Z,21.61
2018-09-01T00:58:19.513Z,21.6
2018-09-01T00:59:19.260Z,21.61
2018-09-01T01:00:19.209Z,21.61
2018-09-01T01:01:19.290Z,21.61
2018-09-01T01:02:19.358Z,21.61
2018-09-01T01:03:19.384Z,21.6
2018-09-01T01:04:19.526Z,21.6
2018-09-01T01:05:19.539Z,21.61
2018-09-01T01:06:19.612Z,21.63
2018-09-01T01:07:19.286Z,21.64
2018-09-01T01:08:19.200Z,21.59
2018-09-01T01:09:19.264Z,21.59
2018-09-01T01:10:19.261Z,21.59
2018-09-01T01:11:19.841Z,21.6
2018-09-01T01:12:19.648Z,21.6
2018-09-01T01:13:19.321Z,21.63
2018-09-01T01:14:19.360Z,21.6
2018-09-01T01:15:19.299Z,21.6
2018-09-01T01:16:19.473Z,21.6
2018-09-01T01:17:19.593Z,21.57
2018-09-01T01:18:19.493Z,21.57
2018-09-01T01:19:19.347Z,21.61
2018-09-01T01:20:19.586Z,21.61
2018-09-01T01:21:19.401Z,21.6
2018-09-01T01:22:19.311Z,21.6
2018-09-01T01:23:19.533Z,21.59
2018-09-01T01:24:19.406Z,21.6
2018-09-01T01:25:19.662Z,21.6
2018-09-01T01:26:19.504Z,21.6
2018-09-01T01:27:19.661Z,21.6
2018-09-01T01:28:19.519Z,21.6
2018-09-01T01:29:19.263Z,21.6
2018-09-01T01:30:19.422Z,21.59
2018-09-01T01:31:19.398Z,21.61
2018-09-01T01:32:19.300Z,21.61
2018-09-01T01:33:19.315Z,21.59
2018-09-01T01:34:19.219Z,21.6
2018-09-01T01:35:19.398Z,21.59
2018-09-01T01:36:19.423Z,21.6
2018-09-01T01:37:19.480Z,21.6
2018-09-01T01:38:19.298Z,21.6
2018-09-01T01:39:19.316Z,21.6
2018-09-01T01:40:19.421Z,21.6
2018-09-01T01:41:19.354Z,21.6
2018-09-01T01:42:19.280Z,21.59
2018-09-01T01:43:19.329Z,21.6
2018-09-01T01:44:19.301Z,21.61
2018-09-01T01:45:19.549Z,21.57
2018-09-01T01:46:19.422Z,21.59
2018-09-01T01:47:19.409Z,21.59
2018-09-01T01:48:19.490Z,21.59
2018-09-01T01:49:19.272Z,21.57
2018-09-01T01:50:19.300Z,21.6
2018-09-01T01:51:19.484Z,21.59
2018-09-01T01:52:19.696Z,21.6
2018-09-01T01:53:19.640Z,21.6
2018-09-01T01:54:19.151Z,21.59
2018-09-01T01:55:19.384Z,21.6
2018-09-01T01:56:19.314Z,21.6
2018-09-01T01:57:19.293Z,21.59
2018-09-01T01:58:19.308Z,21.59
2018-09-01T01:59:19.283Z,21.6
2018-09-01T02:00:19.372Z,21.59
2018-09-01T02:01:19.470Z,21.59
2018-09-01T02:02:19.380Z,21.57
2018-09-01T02:03:19.399Z,21.59
2018-09-01T02:04:19.517Z,21.56
2018-09-01T02:05:19.543Z,21.57
2018-09-01T02:06:19.133Z,21.57
2018-09-01T02:07:19.269Z,21.57
2018-09-01T02:08:19.345Z,21.59
2018-09-01T02:09:19.605Z,21.59
2018-09-01T02:10:19.311Z,21.57
2018-09-01T02:11:19.320Z,21.59
2018-09-01T02:12:19.307Z,21.59
2018-09-01T02:13:19.396Z,21.57
2018-09-01T02:14:19.329Z,21.59
2018-09-01T02:15:19.423Z,21.56
2018-09-01T02:16:19.316Z,21.57
2018-09-01T02:17:19.475Z,21.59
2018-09-01T02:18:19.182Z,21.61
2018-09-01T02:19:19.354Z,21.59
2018-09-01T02:20:19.311Z,21.59
2018-09-01T02:21:19.527Z,21.56
2018-09-01T02:22:19.211Z,21.57
2018-09-01T02:23:19.241Z,21.57
2018-09-01T02:24:19.256Z,21.57
2018-09-01T02:25:20.105Z,21.59
2018-09-01T02:26:19.340Z,21.59
2018-09-01T02:27:19.441Z,21.59
2018-09-01T02:28:19.315Z,21.6
2018-09-01T02:29:19.428Z,21.57
2018-09-01T02:30:19.316Z,21.59
2018-09-01T02:31:19.245Z,21.59
2018-09-01T02:32:19.424Z,21.56
2018-09-01T02:33:19.406Z,21.59
2018-09-01T02:34:19.610Z,21.59
2018-09-01T02:35:19.476Z,21.6
2018-09-01T02:36:19.604Z,21.57
2018-09-01T02:37:19.338Z,21.57
2018-09-01T02:38:19.176Z,21.57
2018-09-01T02:39:19.376Z,21.57
2018-09-01T02:40:19.351Z,21.56
2018-09-01T02:41:19.395Z,21.57
2018-09-01T02:42:19.237Z,21.57
2018-09-01T02:43:19.278Z,21.57
2018-09-01T02:44:19.373Z,21.56
2018-09-01T02:45:19.180Z,21.57
2018-09-01T02:46:19.369Z,21.54
2018-09-01T02:47:19.247Z,21.56
2018-09-01T02:48:19.380Z,21.56
2018-09-01T02:49:19.184Z,21.59
2018-09-01T02:50:19.481Z,21.57
2018-09-01T02:51:19.292Z,21.59
2018-09-01T02:52:19.287Z,21.57
2018-09-01T02:53:19.568Z,21.56
2018-09-01T02:54:19.396Z,21.57
2018-09-01T02:55:19.615Z,21.54
2018-09-01T02:56:19.592Z,21.57
2018-09-01T02:57:19.435Z,21.59
2018-09-01T02:58:19.556Z,21.57
2018-09-01T02:59:19.633Z,21.57
2018-09-01T03:00:19.439Z,21.54
2018-09-01T03:01:19.621Z,21.57
2018-09-01T03:02:19.334Z,21.56
2018-09-01T03:03:19.415Z,21.56
2018-09-01T03:04:19.149Z,21.57
2018-09-01T03:05:19.426Z,21.56
2018-09-01T03:06:19.316Z,21.57
2018-09-01T03:07:19.405Z,21.54
2018-09-01T03:08:19.369Z,21.56
2018-09-01T03:09:19.286Z,21.57
2018-09-01T03:10:19.161Z,21.56
2018-09-01T03:11:19.293Z,21.56
2018-09-01T03:12:19.356Z,21.54
2018-09-01T03:13:19.106Z,21.54
2018-09-01T03:14:19.368Z,21.53
2018-09-01T03:15:19.398Z,21.53
2018-09-01T03:16:19.343Z,21.56
2018-09-01T03:17:19.259Z,21.56
2018-09-01T03:18:19.389Z,21.54
2018-09-01T03:19:19.310Z,21.56
2018-09-01T03:20:19.249Z,21.56
2018-09-01T03:21:19.348Z,21.57
2018-09-01T03:22:19.444Z,21.56
2018-09-01T03:23:19.499Z,21.53
2018-09-01T03:24:19.256Z,21.53
2018-09-01T03:25:19.360Z,21.57
2018-09-01T03:26:19.337Z,21.56
2018-09-01T03:27:19.452Z,21.57
2018-09-01T03:28:19.275Z,21.56
2018-09-01T03:29:19.406Z,21.53
2018-09-01T03:30:19.479Z,21.56
2018-09-01T03:31:19.599Z,21.56
2018-09-01T03:32:19.309Z,21.56
2018-09-01T03:33:19.119Z,21.57
2018-09-01T03:34:19.311Z,21.54
2018-09-01T03:35:19.266Z,21.53
2018-09-01T03:36:19.355Z,21.54
2018-09-01T03:37:19.617Z,21.56
2018-09-01T03:38:19.358Z,21.56
2018-09-01T03:39:19.511Z,21.57
2018-09-01T03:40:19.408Z,21.57
2018-09-01T03:41:19.235Z,21.56
2018-09-01T03:42:19.277Z,21.56
2018-09-01T03:43:19.278Z,21.56
2018-09-01T03:44:19.585Z,21.56
2018-09-01T03:45:19.769Z,21.56
2018-09-01T03:46:19.260Z,21.54
2018-09-01T03:47:19.633Z,21.56
2018-09-01T03:48:19.320Z,21.53
2018-09-01T03:49:19.245Z,21.54
2018-09-01T03:50:19.206Z,21.56
2018-09-01T03:51:19.226Z,21.56
2018-09-01T03:52:19.171Z,21.54
2018-09-01T03:53:19.171Z,21.54
2018-09-01T03:54:19.286Z,21.54
2018-09-01T03:55:19.316Z,21.57
2018-09-01T03:56:19.319Z,21.53
2018-09-01T03:57:19.425Z,21.57
2018-09-01T03:58:19.306Z,21.54
2018-09-01T03:59:19.215Z,21.54
2018-09-01T04:00:19.346Z,21.53
2018-09-01T04:01:19.273Z,21.54
2018-09-01T04:02:19.552Z,21.53
2018-09-01T04:03:19.337Z,21.54
2018-09-01T04:04:19.378Z,21.54
2018-09-01T04:05:19.394Z,21.54
2018-09-01T04:06:19.367Z,21.53
2018-09-01T04:07:19.453Z,21.51
2018-09-01T04:08:19.118Z,21.5
2018-09-01T04:09:19.244Z,21.5
2018-09-01T04:10:19.109Z,21.51
2018-09-01T04:11:19.384Z,21.53
2018-09-01T04:12:19.338Z,21.53
2018-09-01T04:13:19.526Z,21.53
2018-09-01T04:14:19.450Z,21.54
2018-09-01T04:15:19.449Z,21.53
2018-09-01T04:16:19.191Z,21.54
2018-09-01T04:17:19.143Z,21.53
2018-09-01T04:18:19.277Z,21.51
2018-09-01T04:19:19.312Z,21.54
2018-09-01T04:20:19.335Z,21.54
2018-09-01T04:21:19.337Z,21.51
2018-09-01T04:22:19.293Z,21.51
2018-09-01T04:23:19.263Z,21.54
2018-09-01T04:24:19.332Z,21.56
2018-09-01T04:25:19.262Z,21.54
2018-09-01T04:26:19.183Z,21.54
2018-09-01T04:27:19.604Z,21.53
2018-09-01T04:28:19.357Z,21.56
2018-09-01T04:29:19.229Z,21.53
2018-09-01T04:30:19.203Z,21.53
2018-09-01T04:31:19.353Z,21.53
2018-09-01T04:32:19.264Z,21.54
2018-09-01T04:33:19.374Z,21.54
2018-09-01T04:34:19.185Z,21.53
2018-09-01T04:35:19.292Z,21.51
2018-09-01T04:36:19.262Z,21.53
2018-09-01T04:37:19.255Z,21.51
2018-09-01T04:38:19.368Z,21.53
2018-09-01T04:39:19.224Z,21.53
2018-09-01T04:40:19.152Z,21.51
2018-09-01T04:41:19.189Z,21.53
2018-09-01T04:42:19.288Z,21.54
2018-09-01T04:43:19.273Z,21.53
2018-09-01T04:44:19.400Z,21.53
2018-09-01T04:45:19.377Z,21.53
2018-09-01T04:46:19.184Z,21.53
2018-09-01T04:47:19.458Z,21.51
2018-09-01T04:48:19.329Z,21.51
2018-09-01T04:49:19.221Z,21.53
2018-09-01T04:50:19.533Z,21.53
2018-09-01T04:51:19.340Z,21.5
2018-09-01T04:52:19.214Z,21.5
2018-09-01T04:53:19.262Z,21.51
2018-09-01T04:54:19.311Z,21.54
2018-09-01T04:55:19.645Z,21.53
2018-09-01T04:56:19.145Z,21.54
2018-09-01T04:57:19.235Z,21.51
2018-09-01T04:58:19.398Z,21.53
2018-09-01T04:59:19.365Z,21.51
2018-09-01T05:00:19.430Z,21.51
2018-09-01T05:01:19.882Z,21.5
2018-09-01T05:02:19.344Z,21.51
2018-09-01T05:03:19.223Z,21.5
2018-09-01T05:04:19.448Z,21.51
2018-09-01T05:05:19.591Z,21.51
2018-09-01T05:06:19.297Z,21.54
2018-09-01T05:07:19.493Z,21.5
2018-09-01T05:08:19.426Z,21.54
2018-09-01T05:09:19.658Z,21.5
2018-09-01T05:10:19.423Z,21.54
2018-09-01T05:11:19.273Z,21.5
2018-09-01T05:12:19.424Z,21.51
2018-09-01T05:13:19.429Z,21.5
2018-09-01T05:14:19.209Z,21.53
2018-09-01T05:15:19.426Z,21.51
2018-09-01T05:16:19.248Z,21.51
2018-09-01T05:17:19.303Z,21.5
2018-09-01T05:18:19.288Z,21.5
2018-09-01T05:19:19.246Z,21.5
2018-09-01T05:20:19.614Z,21.5
2018-09-01T05:21:19.191Z,21.5
2018-09-01T05:22:19.175Z,21.51
2018-09-01T05:23:19.396Z,21.5
2018-09-01T05:24:19.637Z,21.51
2018-09-01T05:25:19.405Z,21.5
2018-09-01T05:26:19.295Z,21.5
2018-09-01T05:27:19.321Z,21.51
2018-09-01T05:28:19.392Z,21.51
2018-09-01T05:29:19.411Z,21.51
2018-09-01T05:30:19.424Z,21.5
2018-09-01T05:31:19.465Z,21.51
2018-09-01T05:32:19.397Z,21.51
2018-09-01T05:33:19.382Z,21.5
2018-09-01T05:34:19.300Z,21.53
2018-09-01T05:35:19.602Z,21.53
2018-09-01T05:36:19.354Z,21.5
2018-09-01T05:37:19.345Z,21.5
2018-09-01T05:38:19.303Z,21.49
2018-09-01T05:39:19.181Z,21.5
2018-09-01T05:40:19.269Z,21.49
2018-09-01T05:41:19.433Z,21.5
2018-09-01T05:42:19.203Z,21.5
2018-09-01T05:43:19.255Z,21.5
2018-09-01T05:44:19.437Z,21.5
2018-09-01T05:45:19.271Z,21.47
2018-09-01T05:46:19.301Z,21.47
2018-09-01T05:47:19.131Z,21.49
2018-09-01T05:48:19.349Z,21.49
2018-09-01T05:49:19.268Z,21.49
2018-09-01T05:50:19.289Z,21.47
2018-09-01T05:51:19.289Z,21.49
2018-09-01T05:52:19.333Z,21.47
2018-09-01T05:53:19.386Z,21.49
2018-09-01T05:54:19.428Z,21.47
2018-09-01T05:55:19.278Z,21.47
2018-09-01T05:56:19.190Z,21.46
2018-09-01T05:57:19.183Z,21.5
2018-09-01T05:58:19.174Z,21.47
2018-09-01T05:59:19.320Z,21.49
2018-09-01T06:00:19.220Z,21.5
2018-09-01T06:01:19.312Z,21.5
2018-09-01T06:02:19.465Z,21.53
2018-09-01T06:03:19.350Z,21.53
2018-09-01T06:04:19.324Z,21.49
2018-09-01T06:05:19.232Z,21.47
2018-09-01T06:06:20.106Z,21.49
2018-09-01T06:07:19.284Z,21.47
2018-09-01T06:08:19.382Z,21.47
2018-09-01T06:09:19.570Z,21.46
2018-09-01T06:10:19.473Z,21.47
2018-09-01T06:11:19.847Z,21.49
2018-09-01T06:12:19.110Z,21.49
2018-09-01T06:13:19.748Z,21.4
2018-09-01T06:14:19.448Z,21.08
2018-09-01T06:15:19.249Z,20.74
2018-09-01T06:16:19.147Z,20.53
2018-09-01T06:17:19.450Z,20.2
2018-09-01T06:18:19.100Z,20.07
2018-09-01T06:19:20.374Z,20.01
2018-09-01T06:20:19.339Z,19.88
2018-09-01T06:21:19.308Z,19.81
2018-09-01T06:22:19.238Z,19.78
2018-09-01T06:23:19.202Z,19.73
2018-09-01T06:24:19.320Z,19.71
2018-09-01T06:25:19.324Z,19.7
2018-09-01T06:26:19.187Z,19.57
2018-09-01T06:27:19.239Z,19.45
2018-09-01T06:28:19.144Z,19.26
2018-09-01T06:29:19.354Z,19.2
2018-09-01T06:30:20.525Z,19.23
2018-09-01T06:31:19.211Z,19.22
2018-09-01T06:32:19.169Z,19.2
2018-09-01T06:33:19.178Z,19.2
2018-09-01T06:34:19.611Z,19.12
2018-09-01T06:35:19.380Z,19.12
2018-09-01T06:36:19.428Z,19.08
2018-09-01T06:37:19.423Z,19.02
2018-09-01T06:38:19.358Z,18.94
2018-09-01T06:39:19.229Z,18.95
2018-09-01T06:40:19.298Z,19.01
2018-09-01T06:41:19.208Z,19.13
2018-09-01T06:42:19.289Z,19.26
2018-09-01T06:43:19.263Z,19.37
2018-09-01T06:44:19.134Z,19.46
2018-09-01T06:45:19.289Z,19.53
2018-09-01T06:46:19.447Z,19.64
2018-09-01T06:47:19.192Z,19.74
2018-09-01T06:48:19.412Z,19.77
2018-09-01T06:49:19.350Z,19.81
2018-09-01T06:50:19.927Z,19.86
2018-09-01T06:51:19.561Z,19.92
2018-09-01T06:52:19.316Z,19.96
2018-09-01T06:53:19.575Z,20.01
2018-09-01T06:54:19.271Z,20.02
2018-09-01T06:55:19.211Z,20.07
2018-09-01T06:56:19.515Z,20.11
2018-09-01T06:57:19.542Z,20.13
2018-09-01T06:58:19.437Z,20.18
2018-09-01T06:59:19.208Z,20.19
2018-09-01T07:00:19.462Z,20.22
2018-09-01T07:01:19.237Z,20.22
2018-09-01T07:02:19.122Z,20.26
2018-09-01T07:03:19.362Z,20.3
2018-09-01T07:04:19.178Z,20.3
2018-09-01T07:05:19.293Z,20.3
2018-09-01T07:06:19.362Z,20.33
2018-09-01T07:07:19.204Z,20.35
2018-09-01T07:08:19.498Z,20.39
2018-09-01T07:09:19.220Z,20.4
2018-09-01T07:10:19.360Z,20.39
2018-09-01T07:11:19.246Z,20.39
2018-09-01T07:12:19.311Z,20.43
2018-09-01T07:13:19.088Z,20.44
2018-09-01T07:14:19.238Z,20.44
2018-09-01T07:15:19.352Z,20.46
2018-09-01T07:16:19.254Z,20.48
2018-09-01T07:17:19.308Z,20.48
2018-09-01T07:18:19.189Z,20.51
2018-09-01T07:19:19.318Z,20.53
2018-09-01T07:20:19.429Z,20.55
2018-09-01T07:21:19.391Z,20.55
2018-09-01T07:22:19.614Z,20.54
2018-09-01T07:23:19.193Z,20.55
2018-09-01T07:24:19.185Z,20.55
2018-09-01T07:25:19.404Z,20.59
2018-09-01T07:26:19.346Z,20.6
2018-09-01T07:27:19.265Z,20.6
2018-09-01T07:28:19.137Z,20.6
2018-09-01T07:29:19.260Z,20.6
2018-09-01T07:30:20.914Z,20.63
2018-09-01T07:31:24.169Z,20.66
2018-09-01T07:32:19.337Z,20.64
2018-09-01T07:33:19.170Z,20.64
2018-09-01T07:34:19.283Z,20.68
2018-09-01T07:35:19.510Z,20.67
2018-09-01T07:36:19.316Z,20.66
2018-09-01T07:37:19.347Z,20.66
2018-09-01T07:38:19.781Z,20.67
2018-09-01T07:39:19.163Z,20.68
2018-09-01T07:40:19.256Z,20.68
2018-09-01T07:41:19.391Z,20.68
2018-09-01T07:42:19.277Z,20.7
2018-09-01T07:43:19.300Z,20.7
2018-09-01T07:44:19.208Z,20.71
2018-09-01T07:45:19.505Z,20.71
2018-09-01T07:46:19.379Z,20.75
2018-09-01T07:47:19.194Z,20.74
2018-09-01T07:48:19.236Z,20.71
2018-09-01T07:49:19.303Z,20.71
2018-09-01T07:50:19.280Z,20.77
2018-09-01T07:51:19.320Z,20.75
2018-09-01T07:52:19.502Z,20.75
2018-09-01T07:53:19.086Z,20.77
2018-09-01T07:54:19.216Z,20.75
2018-09-01T07:55:19.319Z,20.75
2018-09-01T07:56:20.907Z,20.78
2018-09-01T07:57:19.400Z,20.75
2018-09-01T07:58:19.349Z,20.78
2018-09-01T07:59:19.324Z,20.8
2018-09-01T08:00:19.340Z,20.8
2018-09-01T08:01:19.504Z,20.78
2018-09-01T08:02:19.367Z,20.8
2018-09-01T08:03:19.307Z,20.81
2018-09-01T08:04:19.357Z,20.81
2018-09-01T08:05:19.426Z,20.81
2018-09-01T08:06:19.696Z,20.82
2018-09-01T08:07:19.731Z,20.82
2018-09-01T08:08:19.290Z,20.84
2018-09-01T08:09:19.280Z,20.85
2018-09-01T08:10:19.393Z,20.82
2018-09-01T08:11:19.375Z,20.85
2018-09-01T08:12:19.436Z,20.84
2018-09-01T08:13:19.262Z,20.82
2018-09-01T08:14:20.556Z,20.84
2018-09-01T08:15:19.246Z,20.85
2018-09-01T08:16:19.509Z,20.87
2018-09-01T08:17:19.122Z,20.85
2018-09-01T08:18:19.145Z,20.87
2018-09-01T08:19:19.396Z,20.87
2018-09-01T08:20:19.242Z,20.84
2018-09-01T08:21:19.384Z,20.87
2018-09-01T08:22:19.352Z,20.84
2018-09-01T08:23:19.091Z,20.85
2018-09-01T08:24:19.279Z,20.88
2018-09-01T08:25:19.461Z,20.88
2018-09-01T08:26:19.310Z,20.85
2018-09-01T08:27:19.225Z,20.85
2018-09-01T08:28:19.119Z,20.88
2018-09-01T08:29:19.132Z,20.88
2018-09-01T08:30:19.261Z,20.84
2018-09-01T08:31:19.560Z,20.88
2018-09-01T08:32:19.234Z,20.85
2018-09-01T08:33:19.098Z,20.87
2018-09-01T08:34:19.277Z,20.88
2018-09-01T08:35:19.279Z,20.92
2018-09-01T08:36:19.145Z,20.91
2018-09-01T08:37:19.384Z,20.89
2018-09-01T08:38:19.223Z,20.91
2018-09-01T08:39:19.454Z,20.91
2018-09-01T08:40:19.782Z,20.91
2018-09-01T08:41:19.330Z,20.94
2018-09-01T08:42:19.321Z,20.94
2018-09-01T08:43:19.794Z,20.91
2018-09-01T08:44:19.668Z,20.89
2018-09-01T08:45:19.941Z,20.88
2018-09-01T08:46:19.016Z,20.88
2018-09-01T08:47:19.212Z,20.89
2018-09-01T08:48:19.308Z,20.91
2018-09-01T08:49:19.409Z,20.91
2018-09-01T08:50:19.072Z,20.89
2018-09-01T08:51:19.359Z,20.94
2018-09-01T08:52:19.330Z,20.91
2018-09-01T08:53:19.372Z,20.91
2018-09-01T08:54:19.231Z,20.91
2018-09-01T08:55:19.385Z,20.89
2018-09-01T08:56:19.157Z,20.91
2018-09-01T08:57:19.371Z,20.92
2018-09-01T08:58:19.110Z,20.88
2018-09-01T08:59:19.240Z,20.91
2018-09-01T09:00:19.373Z,20.94
2018-09-01T09:01:19.268Z,20.92
2018-09-01T09:02:19.461Z,20.94
2018-09-01T09:03:19.215Z,20.92
2018-09-01T09:04:19.449Z,20.94
2018-09-01T09:05:19.535Z,20.91
2018-09-01T09:06:19.375Z,20.92
2018-09-01T09:07:19.269Z,20.92
2018-09-01T09:08:19.247Z,20.92
2018-09-01T09:09:19.259Z,20.92
2018-09-01T09:10:19.425Z,20.94
2018-09-01T09:11:19.356Z,20.91
2018-09-01T09:12:19.595Z,20.95
2018-09-01T09:13:19.233Z,20.94
2018-09-01T09:14:19.344Z,20.92
2018-09-01T09:15:19.254Z,20.91
2018-09-01T09:16:19.288Z,20.91
2018-09-01T09:17:19.271Z,20.94
2018-09-01T09:18:19.345Z,20.92
2018-09-01T09:19:19.128Z,20.91
2018-09-01T09:20:19.279Z,20.92
2018-09-01T09:21:19.331Z,20.94
2018-09-01T09:22:19.712Z,20.91
2018-09-01T09:23:19.155Z,20.94
2018-09-01T09:24:19.552Z,20.92
2018-09-01T09:25:19.184Z,20.94
2018-09-01T09:26:19.325Z,20.95
2018-09-01T09:27:19.278Z,20.92
2018-09-01T09:28:19.414Z,20.94
2018-09-01T09:29:19.322Z,20.95
2018-09-01T09:30:19.143Z,20.94
2018-09-01T09:31:19.166Z,20.95
2018-09-01T09:32:19.435Z,20.94
2018-09-01T09:33:19.154Z,20.94
2018-09-01T09:34:19.671Z,20.94
2018-09-01T09:35:19.472Z,20.94
2018-09-01T09:36:19.308Z,20.97
2018-09-01T09:37:19.162Z,20.95
2018-09-01T09:38:19.487Z,20.95
2018-09-01T09:39:19.111Z,20.95
2018-09-01T09:40:19.285Z,20.95
2018-09-01T09:41:19.195Z,20.94
2018-09-01T09:42:19.453Z,20.95
2018-09-01T09:43:19.131Z,20.92
2018-09-01T09:44:19.135Z,20.97
2018-09-01T09:45:19.179Z,20.99
2018-09-01T09:46:19.304Z,20.99
2018-09-01T09:47:19.193Z,20.99
2018-09-01T09:48:19.253Z,20.98
2018-09-01T09:49:19.173Z,20.99
2018-09-01T09:50:19.207Z,20.98
2018-09-01T09:51:19.140Z,20.97
2018-09-01T09:52:19.294Z,20.97
2018-09-01T09:53:19.265Z,20.98
2018-09-01T09:54:19.309Z,20.97
2018-09-01T09:55:19.295Z,21.01
2018-09-01T09:56:19.254Z,21.12
2018-09-01T10:02:03.715Z,20.98
2018-09-01T10:09:57.693Z,20.8
2018-09-01T10:10:58.014Z,20.75
2018-09-01T10:11:57.695Z,20.67
2018-09-01T10:12:57.650Z,20.64
2018-09-01T10:13:58.106Z,20.61
2018-09-01T10:14:58.168Z,20.61
2018-09-01T10:15:58.874Z,20.61
2018-09-01T10:16:57.629Z,20.61
2018-09-01T10:17:57.534Z,20.6
2018-09-01T10:18:58.238Z,20.68
2018-09-01T10:19:58.130Z,20.72
2018-09-01T10:21:10.237Z,20.74
2018-09-01T10:22:10.165Z,20.85
2018-09-01T10:23:10.443Z,20.89
2018-09-01T10:24:10.201Z,20.92
2018-09-01T10:25:10.202Z,20.98
2018-09-01T10:26:10.511Z,20.98
2018-09-01T10:27:10.945Z,21.01
2018-09-01T10:28:10.529Z,21.03
2018-09-01T10:29:10.338Z,21.06
2018-09-01T10:30:10.374Z,21.08
2018-09-01T10:31:10.368Z,21.06
2018-09-01T10:32:10.233Z,21.09
2018-09-01T10:33:10.456Z,21.14
2018-09-01T10:34:10.429Z,21.15
2018-09-01T10:35:10.434Z,21.15
2018-09-01T10:36:10.298Z,21.16
2018-09-01T10:37:10.242Z,21.14
2018-09-01T10:38:10.286Z,21.18
2018-09-01T10:39:10.353Z,21.18
2018-09-01T10:40:10.549Z,21.21
2018-09-01T10:41:10.328Z,21.19
2018-09-01T10:42:10.413Z,21.21
2018-09-01T10:43:10.469Z,21.26
2018-09-01T10:44:10.469Z,21.26
2018-09-01T10:45:10.191Z,21.22
2018-09-01T10:46:10.659Z,21.26
2018-09-01T10:47:10.486Z,21.25
2018-09-01T10:48:10.438Z,21.26
2018-09-01T10:49:10.210Z,21.27
2018-09-01T10:50:10.569Z,21.3
2018-09-01T10:51:10.614Z,21.3
2018-09-01T10:52:10.649Z,21.3
2018-09-01T10:53:10.824Z,21.3
2018-09-01T10:54:10.485Z,21.3
2018-09-01T10:55:10.435Z,21.32
2018-09-01T10:56:10.338Z,21.33
2018-09-01T10:57:10.315Z,21.36
2018-09-01T10:58:10.380Z,21.37
2018-09-01T10:59:12.257Z,21.4
2018-09-01T11:00:10.322Z,21.36
2018-09-01T11:01:10.289Z,21.39
2018-09-01T11:02:10.282Z,21.39
2018-09-01T11:03:10.343Z,21.4
2018-09-01T11:04:10.388Z,21.42
2018-09-01T11:05:10.737Z,21.44
2018-09-01T11:06:10.336Z,21.4
2018-09-01T11:07:10.419Z,21.43
2018-09-01T11:08:10.482Z,21.43
2018-09-01T11:09:10.464Z,21.44
2018-09-01T11:10:10.736Z,21.46
2018-09-01T11:11:10.516Z,21.46
2018-09-01T11:12:10.587Z,21.47
2018-09-01T11:13:10.294Z,21.47
2018-09-01T11:14:11.018Z,21.46
2018-09-01T11:15:11.128Z,21.44
2018-09-01T11:16:10.425Z,21.44
2018-09-01T11:17:11.032Z,21.49
2018-09-01T11:18:10.395Z,21.5
2018-09-01T11:19:10.655Z,21.49
2018-09-01T11:20:10.927Z,21.51
2018-09-01T11:21:10.448Z,21.5
2018-09-01T11:22:10.666Z,21.5
2018-09-01T11:23:10.573Z,21.53
2018-09-01T11:24:10.534Z,21.5
2018-09-01T11:25:10.610Z,21.53
2018-09-01T11:26:10.442Z,21.56
2018-09-01T11:27:10.455Z,21.56
2018-09-01T11:28:11.339Z,21.6
2018-09-01T11:29:10.439Z,21.57
2018-09-01T11:30:10.329Z,21.56
2018-09-01T11:31:10.645Z,21.53
2018-09-01T11:32:10.522Z,21.53
2018-09-01T11:33:10.504Z,21.56
2018-09-01T11:34:10.637Z,21.56
2018-09-01T11:35:10.303Z,21.57
2018-09-01T11:36:11.009Z,21.57
2018-09-01T11:37:10.269Z,21.54
2018-09-01T11:38:10.490Z,21.53
2018-09-01T11:39:10.519Z,21.54
2018-09-01T11:40:10.431Z,21.54
2018-09-01T11:41:10.322Z,21.57
2018-09-01T11:42:10.378Z,21.59
2018-09-01T11:43:12.375Z,21.56
2018-09-01T11:44:10.398Z,21.54
2018-09-01T11:45:10.364Z,21.53
2018-09-01T11:46:10.231Z,21.54
2018-09-01T11:47:10.118Z,21.53
2018-09-01T11:48:10.411Z,21.53
2018-09-01T11:49:10.707Z,21.51
2018-09-01T11:50:10.866Z,21.53
2018-09-01T11:51:10.508Z,21.53
2018-09-01T11:52:10.641Z,21.53
2018-09-01T11:53:10.767Z,21.54
2018-09-01T11:54:10.522Z,21.51
2018-09-01T11:55:10.232Z,21.53
2018-09-01T11:56:10.271Z,21.53
2018-09-01T11:57:10.192Z,21.53
2018-09-01T11:58:10.345Z,21.51
2018-09-01T11:59:10.275Z,21.51
2018-09-01T12:00:10.487Z,21.54
2018-09-01T12:01:10.410Z,21.51
2018-09-01T12:02:10.798Z,21.54
2018-09-01T12:03:10.335Z,21.54
2018-09-01T12:04:10.552Z,21.53
2018-09-01T12:05:10.336Z,21.53
2018-09-01T12:06:10.422Z,21.5
2018-09-01T12:07:10.430Z,21.53
2018-09-01T12:08:10.316Z,21.53
2018-09-01T12:09:11.908Z,21.53
2018-09-01T12:10:10.365Z,21.5
2018-09-01T12:11:10.383Z,21.51
2018-09-01T12:12:10.518Z,21.49
2018-09-01T12:13:10.435Z,21.49
2018-09-01T12:14:10.363Z,21.49
2018-09-01T12:15:10.496Z,21.5
2018-09-01T12:16:10.245Z,21.5
2018-09-01T12:17:10.456Z,21.5
2018-09-01T12:18:10.446Z,21.5
2018-09-01T12:19:10.822Z,21.47
2018-09-01T12:20:10.439Z,21.49
2018-09-01T12:21:10.332Z,21.49
2018-09-01T12:22:10.704Z,21.49
2018-09-01T12:23:10.352Z,21.47
2018-09-01T12:24:10.271Z,21.46
2018-09-01T12:25:10.325Z,21.49
2018-09-01T12:26:10.535Z,21.49
2018-09-01T12:27:10.488Z,21.47
2018-09-01T12:28:10.629Z,21.47
2018-09-01T12:29:10.333Z,21.47
2018-09-01T12:30:10.512Z,21.49
2018-09-01T12:31:10.300Z,21.47
2018-09-01T12:32:10.360Z,21.5
2018-09-01T12:33:10.220Z,21.51
2018-09-01T12:34:10.457Z,21.53
2018-09-01T12:35:10.713Z,21.54
2018-09-01T12:36:10.469Z,21.54
2018-09-01T12:37:10.203Z,21.57
2018-09-01T12:38:10.328Z,21.57
2018-09-01T12:39:10.431Z,21.59
2018-09-01T12:40:10.505Z,21.57
2018-09-01T12:41:10.745Z,21.59
2018-09-01T12:42:11.410Z,21.6
2018-09-01T12:43:10.239Z,21.61
2018-09-01T12:44:10.221Z,21.6
2018-09-01T12:45:10.381Z,21.61
2018-09-01T12:46:10.527Z,21.63
2018-09-01T12:47:10.171Z,21.66
2018-09-01T12:48:10.644Z,21.64
2018-09-01T12:49:10.211Z,21.66
2018-09-01T12:50:10.381Z,21.68
2018-09-01T12:51:10.289Z,21.68
2018-09-01T12:52:10.424Z,21.7
2018-09-01T12:53:11.264Z,21.71
2018-09-01T12:54:10.354Z,21.71
2018-09-01T12:55:10.238Z,21.71
2018-09-01T12:56:10.289Z,21.74
2018-09-01T12:57:10.492Z,21.7
2018-09-01T12:58:10.378Z,21.76
2018-09-01T12:59:10.479Z,21.74
2018-09-01T13:00:10.375Z,21.74
2018-09-01T13:01:10.362Z,21.74
2018-09-01T13:02:10.203Z,21.77
2018-09-01T13:03:10.250Z,21.76
2018-09-01T13:04:10.878Z,21.74
2018-09-01T13:05:10.385Z,21.78
2018-09-01T13:06:10.566Z,21.8
2018-09-01T13:07:10.518Z,21.8
2018-09-01T13:08:10.642Z,21.8